createdAt,value
2019-06-26T00:01:07.644Z,0
2019-06-26T00:02:17.775Z,0
2019-06-26T00:03:27.908Z,0
2019-06-26T00:04:38.031Z,0
2019-06-26T00:05:48.184Z,0
2019-06-26T00:06:58.399Z,0
2019-06-26T00:08:08.279Z,0
2019-06-26T00:09:18.437Z,0
2019-06-26T00:10:28.759Z,0
2019-06-26T00:11:38.951Z,0
2019-06-26T00:12:49.071Z,0
2019-06-26T00:13:58.738Z,0
2019-06-26T00:15:08.855Z,0
2019-06-26T00:16:18.995Z,0
2019-06-26T00:17:29.134Z,0
2019-06-26T00:18:39.366Z,0
2019-06-26T00:19:49.537Z,0
2019-06-26T00:20:59.697Z,0
2019-06-26T00:22:09.846Z,0
2019-06-26T00:23:19.965Z,0
2019-06-26T00:24:30.090Z,0
2019-06-26T00:25:40.228Z,0
2019-06-26T00:26:50.353Z,0
2019-06-26T00:28:00.472Z,0
2019-06-26T00:29:10.827Z,0
2019-06-26T00:30:20.998Z,0
2019-06-26T00:31:31.140Z,0
2019-06-26T00:32:41.301Z,0
2019-06-26T00:33:51.432Z,0
2019-06-26T00:35:01.574Z,0
2019-06-26T00:36:11.702Z,0
2019-06-26T00:37:21.900Z,0
2019-06-26T00:38:32.013Z,0
2019-06-26T00:39:42.180Z,0
2019-06-26T00:40:52.334Z,0
2019-06-26T00:42:02.524Z,0
2019-06-26T00:43:12.681Z,0
2019-06-26T00:44:22.843Z,0
2019-06-26T00:45:32.963Z,0
2019-06-26T00:46:43.099Z,0
2019-06-26T00:47:53.443Z,0
2019-06-26T00:49:03.571Z,0
2019-06-26T00:50:13.731Z,0
2019-06-26T00:51:23.883Z,0
2019-06-26T00:52:34.014Z,0
2019-06-26T00:53:44.162Z,0
2019-06-26T00:54:53.927Z,0
2019-06-26T00:56:04.122Z,0
2019-06-26T00:57:14.239Z,0
2019-06-26T00:58:24.368Z,0
2019-06-26T00:59:34.520Z,0
2019-06-26T01:00:44.675Z,0
2019-06-26T01:01:54.878Z,0
2019-06-26T01:03:04.988Z,0
2019-06-26T01:04:15.145Z,0
2019-06-26T01:05:24.969Z,0
2019-06-26T01:06:35.125Z,0
2019-06-26T01:07:45.283Z,0
2019-06-26T01:08:55.405Z,0
2019-06-26T01:10:05.540Z,0
2019-06-26T01:11:15.693Z,0
2019-06-26T01:12:29.341Z,0
2019-06-26T01:13:39.508Z,0
2019-06-26T01:15:05.161Z,0
2019-06-26T01:16:15.303Z,0
2019-06-26T01:17:25.426Z,0
2019-06-26T01:18:35.537Z,0
2019-06-26T01:19:45.803Z,0
2019-06-26T01:20:55.943Z,0
2019-06-26T01:22:05.804Z,0
2019-06-26T01:23:15.925Z,0
2019-06-26T01:24:26.268Z,0
2019-06-26T01:25:37.382Z,0
2019-06-26T01:26:47.530Z,0
2019-06-26T01:27:57.657Z,0
2019-06-26T01:29:07.770Z,0
2019-06-26T01:30:17.880Z,0
2019-06-26T01:31:27.998Z,0
2019-06-26T01:32:38.119Z,0
2019-06-26T01:33:48.253Z,0
2019-06-26T01:34:58.388Z,0
2019-06-26T01:36:08.545Z,0
2019-06-26T01:37:18.673Z,0
2019-06-26T01:38:28.789Z,0
2019-06-26T01:39:39.022Z,0
2019-06-26T01:40:49.140Z,0
2019-06-26T01:41:59.246Z,0
2019-06-26T01:43:09.463Z,0
2019-06-26T01:44:22.767Z,0
2019-06-26T01:45:32.626Z,0
2019-06-26T01:46:42.770Z,0
2019-06-26T01:47:52.882Z,0
2019-06-26T01:49:02.999Z,0
2019-06-26T01:50:13.120Z,0
2019-06-26T01:51:23.252Z,0
2019-06-26T01:52:33.112Z,0
2019-06-26T01:53:43.259Z,0
2019-06-26T01:54:53.374Z,0
2019-06-26T01:56:03.590Z,0
2019-06-26T01:57:13.720Z,0
2019-06-26T01:58:23.831Z,0
2019-06-26T01:59:33.960Z,0
2019-06-26T02:00:43.943Z,0
2019-06-26T02:01:54.101Z,0
2019-06-26T02:03:04.497Z,0
2019-06-26T02:04:18.048Z,0
2019-06-26T02:05:28.409Z,0
2019-06-26T02:06:38.525Z,0
2019-06-26T02:07:48.673Z,0
2019-06-26T02:08:59.054Z,0
2019-06-26T02:10:09.182Z,0
2019-06-26T02:11:19.343Z,0
2019-06-26T02:12:29.508Z,0
2019-06-26T02:13:39.877Z,0
2019-06-26T02:14:49.994Z,0
2019-06-26T02:16:00.187Z,4
2019-06-26T02:17:10.317Z,4
2019-06-26T02:18:20.423Z,0
2019-06-26T02:19:30.542Z,0
2019-06-26T02:20:40.676Z,4
2019-06-26T02:21:50.813Z,4
2019-06-26T02:23:01.033Z,8
2019-06-26T02:24:10.890Z,4
2019-06-26T02:25:21.079Z,8
2019-06-26T02:26:31.228Z,4
2019-06-26T02:27:41.419Z,8
2019-06-26T02:28:51.549Z,8
2019-06-26T02:30:01.689Z,8
2019-06-26T02:31:11.823Z,12
2019-06-26T02:32:22.011Z,16
2019-06-26T02:33:31.774Z,12
2019-06-26T02:34:41.905Z,16
2019-06-26T02:35:52.054Z,20
2019-06-26T02:37:02.193Z,24
2019-06-26T02:38:12.342Z,24
2019-06-26T02:39:22.475Z,32
2019-06-26T02:40:32.624Z,32
2019-06-26T02:41:42.498Z,36
2019-06-26T02:42:53.434Z,40
2019-06-26T02:44:03.580Z,44
2019-06-26T02:45:13.708Z,52
2019-06-26T02:47:36.091Z,64
2019-06-26T02:48:46.230Z,72
2019-06-26T02:49:56.394Z,80
2019-06-26T02:51:06.540Z,88
2019-06-26T02:52:16.674Z,96
2019-06-26T02:53:26.829Z,108
2019-06-26T02:54:36.942Z,116
2019-06-26T02:55:47.068Z,132
2019-06-26T02:56:57.616Z,140
2019-06-26T02:58:07.753Z,152
2019-06-26T02:59:17.881Z,164
2019-06-26T03:00:28.085Z,176
2019-06-26T03:01:37.968Z,184
2019-06-26T03:02:48.169Z,196
2019-06-26T03:03:58.343Z,208
2019-06-26T03:05:08.467Z,216
2019-06-26T03:06:18.631Z,232
2019-06-26T03:07:28.383Z,240
2019-06-26T03:08:37.942Z,252
2019-06-26T03:09:48.096Z,260
2019-06-26T03:10:58.222Z,276
2019-06-26T03:12:08.432Z,288
2019-06-26T03:13:18.567Z,300
2019-06-26T03:14:28.688Z,316
2019-06-26T03:15:38.812Z,328
2019-06-26T03:16:48.917Z,344
2019-06-26T03:18:03.073Z,364
2019-06-26T03:19:14.365Z,384
2019-06-26T03:20:24.504Z,400
2019-06-26T03:21:34.610Z,424
2019-06-26T03:22:44.785Z,448
2019-06-26T03:23:54.939Z,472
2019-06-26T03:25:05.047Z,492
2019-06-26T03:26:15.166Z,520
2019-06-26T03:27:25.479Z,544
2019-06-26T03:28:35.360Z,572
2019-06-26T03:29:45.473Z,604
2019-06-26T03:30:55.677Z,636
2019-06-26T03:32:05.830Z,672
2019-06-26T03:33:16.009Z,704
2019-06-26T03:34:26.133Z,736
2019-06-26T03:35:36.310Z,768
2019-06-26T03:36:48.697Z,800
2019-06-26T03:37:58.567Z,832
2019-06-26T03:39:08.752Z,852
2019-06-26T03:40:18.867Z,880
2019-06-26T03:41:28.729Z,904
2019-06-26T03:42:38.915Z,940
2019-06-26T03:43:49.108Z,968
2019-06-26T03:44:59.229Z,1000
2019-06-26T03:46:09.633Z,1032
2019-06-26T03:47:19.792Z,1064
2019-06-26T03:48:29.916Z,1088
2019-06-26T03:49:40.038Z,1116
2019-06-26T03:50:50.199Z,1148
2019-06-26T03:52:00.423Z,1180
2019-06-26T03:53:10.308Z,1204
2019-06-26T03:54:20.074Z,1232
2019-06-26T03:55:30.194Z,1260
2019-06-26T03:56:40.063Z,1284
2019-06-26T03:57:50.184Z,1312
2019-06-26T03:59:00.465Z,1340
2019-06-26T04:00:10.614Z,1368
2019-06-26T04:01:20.941Z,1392
2019-06-26T04:02:31.048Z,1420
2019-06-26T04:03:41.181Z,1444
2019-06-26T04:04:51.296Z,1468
2019-06-26T04:06:01.417Z,1492
2019-06-26T04:07:11.535Z,1520
2019-06-26T04:08:21.647Z,1544
2019-06-26T04:09:31.777Z,1564
2019-06-26T04:10:45.691Z,1596
2019-06-26T04:11:55.872Z,1616
2019-06-26T04:13:06.017Z,1640
2019-06-26T04:14:16.135Z,1664
2019-06-26T04:15:40.714Z,1688
2019-06-26T04:16:51.583Z,1720
2019-06-26T04:18:01.717Z,1744
2019-06-26T04:19:11.870Z,1764
2019-06-26T04:20:22.027Z,1788
2019-06-26T04:21:32.159Z,1816
2019-06-26T04:22:42.268Z,1840
2019-06-26T04:23:55.342Z,1868
2019-06-26T04:25:05.217Z,1888
2019-06-26T04:26:15.334Z,1916
2019-06-26T04:27:25.468Z,1940
2019-06-26T04:28:35.577Z,1964
2019-06-26T04:29:45.700Z,1984
2019-06-26T04:30:55.827Z,2008
2019-06-26T04:32:05.931Z,2028
2019-06-26T04:33:16.045Z,2052
2019-06-26T04:34:26.160Z,2080
2019-06-26T04:35:36.022Z,2104
2019-06-26T04:36:46.154Z,2128
2019-06-26T04:37:56.301Z,2148
2019-06-26T04:39:06.550Z,2172
2019-06-26T04:40:19.462Z,2200
2019-06-26T04:41:30.477Z,2224
2019-06-26T04:42:40.690Z,2244
2019-06-26T04:43:50.876Z,2268
2019-06-26T04:45:00.992Z,2292
2019-06-26T04:46:11.094Z,2316
2019-06-26T04:47:21.214Z,2344
2019-06-26T04:48:31.332Z,2368
2019-06-26T04:49:41.455Z,2396
2019-06-26T04:50:51.614Z,2420
2019-06-26T04:52:01.837Z,2448
2019-06-26T04:53:11.968Z,2468
2019-06-26T04:54:22.123Z,2492
2019-06-26T04:55:32.386Z,2516
2019-06-26T04:56:42.510Z,2544
2019-06-26T04:57:52.804Z,2572
2019-06-26T04:59:02.949Z,2604
2019-06-26T05:00:13.072Z,2628
2019-06-26T05:01:22.955Z,2652
2019-06-26T05:02:33.090Z,2676
2019-06-26T05:03:43.388Z,2700
2019-06-26T05:04:53.565Z,2724
2019-06-26T05:06:03.662Z,2744
2019-06-26T05:07:13.797Z,2764
2019-06-26T05:08:24.104Z,2788
2019-06-26T05:09:34.222Z,2808
2019-06-26T05:10:44.130Z,2836
2019-06-26T05:11:54.237Z,2856
2019-06-26T05:13:04.368Z,2880
2019-06-26T05:14:14.494Z,2900
2019-06-26T05:15:24.655Z,2924
2019-06-26T05:16:34.857Z,2952
2019-06-26T05:17:44.977Z,2976
2019-06-26T05:18:55.113Z,3000
2019-06-26T05:20:05.504Z,3020
2019-06-26T05:21:15.642Z,3044
2019-06-26T05:22:25.869Z,3064
2019-06-26T05:23:36.020Z,3096
2019-06-26T05:24:48.970Z,3128
2019-06-26T05:25:59.085Z,3156
2019-06-26T05:27:09.216Z,3184
2019-06-26T05:28:19.082Z,3208
2019-06-26T05:29:29.404Z,3240
2019-06-26T05:30:39.643Z,3264
2019-06-26T05:31:49.819Z,3288
2019-06-26T05:33:00.035Z,3304
2019-06-26T05:34:13.453Z,3328
2019-06-26T05:35:23.624Z,3344
2019-06-26T05:36:33.736Z,3364
2019-06-26T05:37:43.916Z,3388
2019-06-26T05:38:54.017Z,3408
2019-06-26T05:39:54.691Z,3432
2019-06-26T05:41:04.989Z,3460
2019-06-26T05:42:15.210Z,3488
2019-06-26T05:43:25.069Z,3504
2019-06-26T05:44:35.194Z,3520
2019-06-26T05:45:45.060Z,3540
2019-06-26T05:46:55.327Z,3560
2019-06-26T05:48:05.459Z,3576
2019-06-26T05:49:15.616Z,3600
2019-06-26T05:50:25.745Z,3624
2019-06-26T05:51:35.895Z,3652
2019-06-26T05:52:49.653Z,3672
2019-06-26T05:53:59.852Z,3696
2019-06-26T05:55:09.982Z,3724
2019-06-26T05:56:20.160Z,3748
2019-06-26T05:57:30.302Z,3764
2019-06-26T05:58:40.460Z,3776
2019-06-26T05:59:50.605Z,3788
2019-06-26T06:01:00.764Z,3808
2019-06-26T06:02:10.960Z,3816
2019-06-26T06:03:21.114Z,3824
2019-06-26T06:04:30.987Z,3848
2019-06-26T06:05:41.124Z,3864
2019-06-26T06:06:51.126Z,3888
2019-06-26T06:08:01.241Z,3904
2019-06-26T06:09:11.349Z,3928
2019-06-26T06:10:21.505Z,3948
2019-06-26T06:11:31.638Z,3964
2019-06-26T06:12:41.755Z,3980
2019-06-26T06:13:51.861Z,4004
2019-06-26T06:15:01.992Z,4028
2019-06-26T06:16:13.864Z,4056
2019-06-26T06:17:24.052Z,4080
2019-06-26T06:18:40.611Z,4104
2019-06-26T06:19:54.449Z,4124
2019-06-26T06:21:04.734Z,4148
2019-06-26T06:22:19.695Z,4172
2019-06-26T06:23:29.822Z,4196
2019-06-26T06:24:39.935Z,4216
2019-06-26T06:25:54.576Z,4244
2019-06-26T06:27:04.918Z,4264
2019-06-26T06:28:18.647Z,4284
2019-06-26T06:29:32.564Z,4304
2019-06-26T06:30:42.705Z,4324
2019-06-26T06:31:52.850Z,4352
2019-06-26T06:33:03.053Z,4380
2019-06-26T06:34:13.174Z,4408
2019-06-26T06:35:23.317Z,4428
2019-06-26T06:36:33.432Z,4444
2019-06-26T06:37:43.206Z,4460
2019-06-26T06:38:53.529Z,4472
2019-06-26T06:40:03.648Z,4492
2019-06-26T06:41:13.778Z,4508
2019-06-26T06:42:23.909Z,4532
2019-06-26T06:43:34.129Z,4552
2019-06-26T06:44:44.066Z,4576
2019-06-26T06:45:54.552Z,4600
2019-06-26T06:47:13.863Z,4632
2019-06-26T06:48:23.988Z,4648
2019-06-26T06:49:34.116Z,4664
2019-06-26T06:50:44.214Z,4688
2019-06-26T06:51:54.379Z,4704
2019-06-26T06:53:04.537Z,4728
2019-06-26T06:54:14.665Z,4748
2019-06-26T06:55:24.863Z,4788
2019-06-26T06:56:34.977Z,4804
2019-06-26T06:57:45.147Z,4848
2019-06-26T06:58:55.254Z,4888
2019-06-26T07:00:05.734Z,4932
2019-06-26T07:01:15.883Z,4968
2019-06-26T07:02:26.025Z,5000
2019-06-26T07:03:36.184Z,5040
2019-06-26T07:04:46.361Z,5076
2019-06-26T07:05:56.207Z,5104
2019-06-26T07:07:06.332Z,5132
2019-06-26T07:08:16.444Z,5156
2019-06-26T07:09:26.549Z,5176
2019-06-26T07:10:36.678Z,5196
2019-06-26T07:11:46.783Z,5216
2019-06-26T07:12:56.984Z,5232
2019-06-26T07:14:07.218Z,5248
2019-06-26T07:15:17.352Z,5280
2019-06-26T07:16:27.530Z,5308
2019-06-26T07:17:37.655Z,5340
2019-06-26T07:18:48.015Z,5372
2019-06-26T07:19:58.143Z,5412
2019-06-26T07:21:08.264Z,5456
2019-06-26T07:22:18.415Z,5496
2019-06-26T07:23:28.583Z,5536
2019-06-26T07:24:38.746Z,5580
2019-06-26T07:25:48.857Z,5620
2019-06-26T07:26:58.962Z,5664
2019-06-26T07:28:09.720Z,5700
2019-06-26T07:29:19.940Z,5756
2019-06-26T07:30:30.110Z,5820
2019-06-26T07:31:43.346Z,5884
2019-06-26T07:32:53.679Z,5948
2019-06-26T07:34:03.832Z,6016
2019-06-26T07:35:13.994Z,6072
2019-06-26T07:36:24.194Z,6124
2019-06-26T07:37:34.328Z,6168
2019-06-26T07:38:44.472Z,6228
2019-06-26T07:39:57.683Z,6288
2019-06-26T07:41:10.790Z,6356
2019-06-26T07:42:21.032Z,6412
2019-06-26T07:43:31.148Z,6460
2019-06-26T07:44:41.343Z,6500
2019-06-26T07:45:51.231Z,6540
2019-06-26T07:47:01.408Z,6592
2019-06-26T07:48:11.554Z,6640
2019-06-26T07:49:21.719Z,6680
2019-06-26T07:50:34.896Z,6720
2019-06-26T07:51:45.030Z,6776
2019-06-26T07:52:55.248Z,6820
2019-06-26T07:54:05.440Z,6864
2019-06-26T07:55:19.056Z,6920
2019-06-26T07:56:29.213Z,6976
2019-06-26T07:57:39.513Z,7024
2019-06-26T07:58:49.627Z,7072
2019-06-26T07:59:59.755Z,7132
2019-06-26T08:01:10.082Z,7180
2019-06-26T08:02:20.212Z,7240
2019-06-26T08:03:30.367Z,7284
2019-06-26T08:04:40.527Z,7324
2019-06-26T08:05:50.803Z,7364
2019-06-26T08:07:00.967Z,7392
2019-06-26T08:08:14.445Z,7444
2019-06-26T08:09:24.905Z,7500
2019-06-26T08:10:34.838Z,7540
2019-06-26T08:11:44.784Z,7608
2019-06-26T08:12:54.892Z,7684
2019-06-26T08:14:05.239Z,7740
2019-06-26T08:15:15.410Z,7780
2019-06-26T08:16:25.346Z,7824
2019-06-26T08:17:35.580Z,7856
2019-06-26T08:18:45.724Z,7892
2019-06-26T08:19:55.927Z,7880
2019-06-26T08:21:19.120Z,8004
2019-06-26T08:22:29.332Z,8080
2019-06-26T08:23:39.262Z,8124
2019-06-26T08:24:49.393Z,8136
2019-06-26T08:25:59.539Z,8172
2019-06-26T08:27:12.710Z,8204
2019-06-26T08:28:23.190Z,8240
2019-06-26T08:29:33.120Z,8268
2019-06-26T08:30:43.245Z,8300
2019-06-26T08:31:53.370Z,8340
2019-06-26T08:33:03.571Z,8364
2019-06-26T08:34:13.723Z,8400
2019-06-26T08:35:23.830Z,8476
2019-06-26T08:36:34.000Z,8492
2019-06-26T08:37:44.115Z,8560
2019-06-26T08:38:54.265Z,8608
2019-06-26T08:40:04.394Z,8712
2019-06-26T08:41:14.649Z,8844
2019-06-26T08:42:24.510Z,10296
2019-06-26T08:43:38.065Z,21920
2019-06-26T08:44:48.178Z,35456
2019-06-26T08:45:58.339Z,42240
2019-06-26T08:47:08.507Z,42784
2019-06-26T08:48:44.143Z,43648
2019-06-26T08:49:54.273Z,41344
2019-06-26T08:51:04.482Z,25024
2019-06-26T08:52:14.642Z,10528
2019-06-26T08:53:24.527Z,9712
2019-06-26T08:54:34.957Z,9680
2019-06-26T08:55:45.092Z,9712
2019-06-26T08:56:55.323Z,9768
2019-06-26T08:58:05.554Z,9816
2019-06-26T08:59:15.701Z,9924
2019-06-26T09:00:25.863Z,10100
2019-06-26T09:01:35.989Z,10408
2019-06-26T09:02:46.118Z,12004
2019-06-26T09:03:56.276Z,24288
2019-06-26T09:05:06.416Z,40256
2019-06-26T09:06:16.554Z,46592
2019-06-26T09:07:26.685Z,47008
2019-06-26T09:08:37.148Z,47840
2019-06-26T09:09:47.271Z,49600
2019-06-26T09:10:57.424Z,49600
2019-06-26T09:12:07.757Z,49152
2019-06-26T09:13:17.896Z,50752
2019-06-26T09:14:28.067Z,50720
2019-06-26T09:16:50.880Z,53056
2019-06-26T09:18:00.815Z,53472
2019-06-26T09:19:10.982Z,52992
2019-06-26T09:20:21.134Z,55680
2019-06-26T09:21:33.679Z,54784
2019-06-26T09:22:44.044Z,54400
2019-06-26T09:23:54.281Z,57376
2019-06-26T09:25:23.608Z,56576
2019-06-26T09:26:33.758Z,56224
2019-06-26T09:27:45.505Z,56960
2019-06-26T09:28:59.250Z,57312
2019-06-26T09:30:09.487Z,57856
2019-06-26T09:31:20.478Z,57440
2019-06-26T09:33:45.596Z,58528
2019-06-26T09:34:58.771Z,56416
2019-06-26T09:36:11.798Z,57824
2019-06-26T09:37:21.938Z,59328
2019-06-26T09:38:32.127Z,57952
2019-06-26T09:40:57.187Z,59360
2019-06-26T09:43:26.706Z,58400
2019-06-26T09:44:37.435Z,58496
2019-06-26T09:45:47.845Z,61056
2019-06-26T09:46:57.971Z,61248
2019-06-26T09:48:08.367Z,61792
2019-06-26T09:49:18.489Z,61408
2019-06-26T09:50:28.626Z,60800
2019-06-26T09:51:42.569Z,61920
2019-06-26T09:52:52.744Z,60960
2019-06-26T09:54:04.342Z,58624
2019-06-26T09:55:14.265Z,59552
2019-06-26T09:56:24.529Z,62080
2019-06-26T09:57:40.068Z,59648
2019-06-26T09:58:50.217Z,61024
2019-06-26T10:00:00.427Z,64000
2019-06-26T10:01:10.811Z,62976
2019-06-26T10:02:20.944Z,61952
2019-06-26T10:03:33.531Z,63648
2019-06-26T10:04:43.689Z,64256
2019-06-26T10:05:53.832Z,62176
2019-06-26T10:07:04.611Z,63328
2019-06-26T10:08:15.064Z,65920
2019-06-26T10:09:25.244Z,64704
2019-06-26T10:10:35.434Z,64064
2019-06-26T10:11:45.592Z,65152
2019-06-26T10:12:55.738Z,66080
2019-06-26T10:14:05.865Z,69088
2019-06-26T10:15:16.056Z,73696
2019-06-26T10:16:26.185Z,76000
2019-06-26T10:17:37.163Z,74464
2019-06-26T10:18:47.584Z,75904
2019-06-26T10:20:01.411Z,77568
2019-06-26T10:21:11.694Z,76128
2019-06-26T10:22:21.838Z,76064
2019-06-26T10:26:05.140Z,69888
2019-06-26T10:27:15.344Z,69344
2019-06-26T10:28:25.519Z,71168
2019-06-26T10:29:38.155Z,71488
2019-06-26T10:30:47.969Z,74400
2019-06-26T10:31:58.192Z,72416
2019-06-26T10:33:08.404Z,73728
2019-06-26T10:34:18.540Z,77344
2019-06-26T10:37:57.411Z,76544
2019-06-26T10:39:08.419Z,76672
2019-06-26T10:40:21.408Z,76832
2019-06-26T10:41:30.942Z,75968
2019-06-26T10:42:41.098Z,75488
2019-06-26T10:44:23.093Z,77472
2019-06-26T10:45:36.015Z,77440
2019-06-26T10:46:47.039Z,77312
2019-06-26T10:48:00.801Z,77568
2019-06-26T10:49:28.930Z,77408
2019-06-26T10:50:57.043Z,79232
2019-06-26T10:52:08.082Z,79808
2019-06-26T10:53:19.498Z,78080
2019-06-26T10:54:29.656Z,76864
2019-06-26T10:55:39.797Z,76992
2019-06-26T10:56:49.978Z,77632
2019-06-26T10:58:00.294Z,77696
2019-06-26T10:59:10.523Z,76896
2019-06-26T11:00:20.707Z,77152
2019-06-26T11:01:30.874Z,78784
2019-06-26T11:02:41.040Z,76736
2019-06-26T11:03:51.208Z,76608
2019-06-26T11:05:01.375Z,72928
2019-06-26T11:06:11.571Z,72512
2019-06-26T11:07:21.738Z,74240
2019-06-26T11:08:31.882Z,74752
2019-06-26T11:09:42.031Z,77472
2019-06-26T11:10:52.362Z,79040
2019-06-26T11:12:02.778Z,77152
2019-06-26T11:13:12.934Z,74304
2019-06-26T11:14:22.883Z,77280
2019-06-26T11:15:33.180Z,80928
2019-06-26T11:16:43.403Z,78144
2019-06-26T11:17:53.583Z,74976
2019-06-26T11:19:03.771Z,75712
2019-06-26T11:20:13.979Z,79328
2019-06-26T11:21:24.124Z,80064
2019-06-26T11:22:34.323Z,75456
2019-06-26T11:23:44.497Z,74464
2019-06-26T11:24:54.552Z,76736
2019-06-26T11:26:04.816Z,78080
2019-06-26T11:27:14.947Z,77216
2019-06-26T11:28:25.115Z,75424
2019-06-26T11:29:35.295Z,74912
2019-06-26T11:30:45.446Z,76192
2019-06-26T11:31:55.640Z,75008
2019-06-26T11:33:05.828Z,75584
2019-06-26T11:34:16.066Z,75936
2019-06-26T11:35:26.505Z,74944
2019-06-26T11:36:36.790Z,74880
2019-06-26T11:37:46.949Z,74912
2019-06-26T11:38:56.891Z,75520
2019-06-26T11:40:07.120Z,69056
2019-06-26T11:41:17.323Z,72064
2019-06-26T11:42:27.517Z,69504
2019-06-26T11:43:40.593Z,75072
2019-06-26T11:44:50.789Z,73024
2019-06-26T11:46:00.944Z,72704
2019-06-26T11:47:11.180Z,72768
2019-06-26T11:48:21.039Z,72864
2019-06-26T11:49:31.212Z,56320
2019-06-26T11:50:41.341Z,68064
2019-06-26T11:51:51.502Z,72384
2019-06-26T11:53:02.033Z,14864
2019-06-26T11:54:12.195Z,66304
2019-06-26T11:55:22.090Z,12448
2019-06-26T11:56:32.530Z,72128
2019-06-26T11:57:42.719Z,15232
2019-06-26T11:58:52.879Z,20224
2019-06-26T12:00:03.020Z,13572
2019-06-26T12:01:13.498Z,59136
2019-06-26T12:02:23.666Z,73408
2019-06-26T12:03:33.858Z,73728
2019-06-26T12:04:43.994Z,73056
2019-06-26T12:06:07.613Z,15172
2019-06-26T12:07:26.647Z,71456
2019-06-26T12:08:37.112Z,74752
2019-06-26T12:09:47.548Z,74752
2019-06-26T12:10:57.772Z,70880
2019-06-26T12:12:07.924Z,16448
2019-06-26T12:13:18.081Z,14516
2019-06-26T12:14:28.229Z,71584
2019-06-26T12:15:38.619Z,74848
2019-06-26T12:16:48.886Z,71136
2019-06-26T12:17:59.182Z,72064
2019-06-26T12:19:09.324Z,67424
2019-06-26T12:20:26.432Z,68992
2019-06-26T12:21:36.656Z,72128
2019-06-26T12:22:46.853Z,72192
2019-06-26T12:23:57.029Z,14284
2019-06-26T12:25:07.178Z,24832
2019-06-26T12:26:17.398Z,66336
2019-06-26T12:27:27.542Z,73120
2019-06-26T12:28:37.685Z,17312
2019-06-26T12:29:47.824Z,73024
2019-06-26T12:30:57.983Z,74880
2019-06-26T12:32:08.133Z,62912
2019-06-26T12:33:18.315Z,68800
2019-06-26T12:34:28.465Z,67936
2019-06-26T12:35:38.112Z,70912
2019-06-26T12:36:48.033Z,70144
2019-06-26T12:37:58.467Z,71520
2019-06-26T12:39:08.687Z,71616
2019-06-26T12:40:18.930Z,73504
2019-06-26T12:41:29.116Z,71168
2019-06-26T12:42:39.297Z,66208
2019-06-26T12:43:49.487Z,63424
2019-06-26T12:44:59.628Z,66048
2019-06-26T12:46:09.786Z,67872
2019-06-26T12:47:19.705Z,68320
2019-06-26T12:48:29.915Z,68224
2019-06-26T12:49:40.074Z,70784
2019-06-26T12:50:50.215Z,67616
2019-06-26T12:52:00.424Z,66720
2019-06-26T12:53:10.572Z,65760
2019-06-26T12:54:20.786Z,66784
2019-06-26T12:55:35.267Z,64800
2019-06-26T12:56:45.469Z,64896
2019-06-26T12:58:11.562Z,66720
2019-06-26T12:59:27.853Z,63616
2019-06-26T13:00:38.116Z,62208
2019-06-26T13:01:48.289Z,59904
2019-06-26T13:02:58.494Z,56320
2019-06-26T13:04:08.758Z,62560
2019-06-26T13:05:18.953Z,67136
2019-06-26T13:06:29.130Z,68960
2019-06-26T13:07:38.962Z,65088
2019-06-26T13:08:49.144Z,61856
2019-06-26T13:09:59.458Z,63008
2019-06-26T13:11:10.018Z,63392
2019-06-26T13:12:20.366Z,66016
2019-06-26T13:13:30.558Z,63328
2019-06-26T13:14:40.727Z,61280
2019-06-26T13:15:53.507Z,60224
2019-06-26T13:17:03.685Z,66624
2019-06-26T13:18:13.854Z,63616
2019-06-26T13:19:24.149Z,60480
2019-06-26T13:20:48.137Z,61184
2019-06-26T13:22:01.955Z,64416
2019-06-26T13:23:14.733Z,63040
2019-06-26T13:24:25.139Z,58784
2019-06-26T13:25:35.037Z,58048
2019-06-26T13:26:44.968Z,59168
2019-06-26T13:27:55.476Z,58848
2019-06-26T13:29:08.808Z,58048
2019-06-26T13:30:19.502Z,55872
2019-06-26T13:31:29.884Z,54784
2019-06-26T13:32:40.044Z,55712
2019-06-26T13:33:50.218Z,56992
2019-06-26T13:35:00.441Z,58432
2019-06-26T13:36:10.656Z,56288
2019-06-26T13:37:20.832Z,54112
2019-06-26T13:38:34.351Z,55360
2019-06-26T13:39:44.493Z,58560
2019-06-26T13:40:54.626Z,59968
2019-06-26T13:42:04.791Z,55104
2019-06-26T13:43:14.813Z,51456
2019-06-26T13:44:24.986Z,53984
2019-06-26T13:45:34.907Z,57504
2019-06-26T13:46:45.073Z,55872
2019-06-26T13:47:55.253Z,52928
2019-06-26T13:49:05.406Z,52960
2019-06-26T13:50:15.585Z,52064
2019-06-26T13:51:28.728Z,52992
2019-06-26T13:52:38.873Z,54112
2019-06-26T13:53:49.297Z,51872
2019-06-26T13:55:02.145Z,48576
2019-06-26T13:56:12.298Z,49024
2019-06-26T13:57:23.301Z,51616
2019-06-26T13:58:33.522Z,53088
2019-06-26T13:59:43.690Z,52704
2019-06-26T14:00:53.866Z,49888
2019-06-26T14:02:04.107Z,48768
2019-06-26T14:03:14.293Z,51200
2019-06-26T14:04:24.515Z,49600
2019-06-26T14:05:36.875Z,49024
2019-06-26T14:06:47.028Z,49728
2019-06-26T14:07:57.204Z,47680
2019-06-26T14:09:07.370Z,47616
2019-06-26T14:10:17.593Z,48992
2019-06-26T14:11:27.494Z,51168
2019-06-26T14:12:37.698Z,50112
2019-06-26T14:13:49.274Z,47264
2019-06-26T14:15:04.932Z,48256
2019-06-26T14:16:15.131Z,50464
2019-06-26T14:17:25.418Z,50400
2019-06-26T14:18:37.711Z,47904
2019-06-26T14:19:47.920Z,43104
2019-06-26T14:20:58.083Z,43008
2019-06-26T14:22:08.350Z,45760
2019-06-26T14:23:20.977Z,44672
2019-06-26T14:24:31.154Z,44768
2019-06-26T14:25:41.344Z,45504
2019-06-26T14:26:51.496Z,44608
2019-06-26T14:28:01.634Z,43936
2019-06-26T14:29:27.217Z,43200
2019-06-26T14:30:37.554Z,44096
2019-06-26T14:31:47.719Z,44448
2019-06-26T14:32:57.962Z,43168
2019-06-26T14:34:08.147Z,42432
2019-06-26T14:35:18.284Z,42624
2019-06-26T14:36:30.757Z,43616
2019-06-26T14:37:40.923Z,43136
2019-06-26T14:38:51.090Z,41824
2019-06-26T14:40:01.263Z,41184
2019-06-26T14:41:11.431Z,41760
2019-06-26T14:42:21.756Z,42112
2019-06-26T14:43:31.670Z,41280
2019-06-26T14:44:41.837Z,40576
2019-06-26T14:45:51.981Z,39776
2019-06-26T14:47:02.130Z,40512
2019-06-26T14:48:12.452Z,41696
2019-06-26T14:49:22.875Z,42336
2019-06-26T14:50:33.036Z,40224
2019-06-26T14:51:53.898Z,39776
2019-06-26T14:53:04.062Z,40384
2019-06-26T14:54:14.212Z,39904
2019-06-26T14:55:24.408Z,39776
2019-06-26T14:56:34.556Z,40032
2019-06-26T14:57:44.721Z,38144
2019-06-26T14:58:54.634Z,37504
2019-06-26T15:00:04.891Z,37472
2019-06-26T15:01:14.809Z,37600
2019-06-26T15:02:24.973Z,33696
2019-06-26T15:03:35.159Z,22304
2019-06-26T15:04:48.599Z,12340
2019-06-26T15:06:12.203Z,9788
2019-06-26T15:07:25.586Z,8992
2019-06-26T15:08:35.737Z,8696
2019-06-26T15:09:45.906Z,8432
2019-06-26T15:10:56.094Z,8264
2019-06-26T15:12:06.247Z,7976
2019-06-26T15:13:16.393Z,7728
2019-06-26T15:14:26.755Z,7608
2019-06-26T15:15:36.947Z,7536
2019-06-26T15:16:47.098Z,7432
2019-06-26T15:17:57.278Z,7300
2019-06-26T15:19:07.513Z,7168
2019-06-26T15:20:17.665Z,7060
2019-06-26T15:21:27.798Z,6980
2019-06-26T15:22:37.951Z,6876
2019-06-26T15:23:48.193Z,6740
2019-06-26T15:24:58.344Z,6628
2019-06-26T15:26:08.504Z,6548
2019-06-26T15:27:18.668Z,6488
2019-06-26T15:28:28.826Z,6436
2019-06-26T15:29:39.012Z,6412
2019-06-26T15:30:49.266Z,6380
2019-06-26T15:31:59.196Z,6336
2019-06-26T15:33:09.348Z,6296
2019-06-26T15:34:19.568Z,6260
2019-06-26T15:35:29.781Z,6236
2019-06-26T15:36:39.925Z,6188
2019-06-26T15:37:51.927Z,6136
2019-06-26T15:39:04.162Z,6084
2019-06-26T15:40:16.353Z,6052
2019-06-26T15:41:26.366Z,6036
2019-06-26T15:42:37.505Z,6008
2019-06-26T15:43:47.684Z,5992
2019-06-26T15:44:58.119Z,5992
2019-06-26T15:46:07.962Z,5980
2019-06-26T15:47:18.186Z,5944
2019-06-26T15:48:28.335Z,5900
2019-06-26T15:49:38.528Z,5864
2019-06-26T15:50:48.672Z,5844
2019-06-26T15:52:14.014Z,5824
2019-06-26T15:53:24.934Z,5768
2019-06-26T15:54:34.852Z,5656
2019-06-26T15:55:45.012Z,5572
2019-06-26T15:56:55.239Z,5480
2019-06-26T15:58:05.411Z,5388
2019-06-26T15:59:15.586Z,5344